MHRO Airport Information

Runway Information
Runway 07 Length 7349 ft width 148 ft
Elevation 9 ft Threshold 200 ft Heading 66
Runway 25 Length 7349 ft Width 148 ft
Elevation 17 ft Threshold 0 ft Heading 246
Airport Frequencies
Type GND Name GND Frequency 121.6 MHZ
Type TWR Name ROATAN TWR Frequency 118.1 MHZ
Airport Navaids
Type VOR-DME Name Roatan Frequency 113800 KHZ
Type NDB Name Roatan Frequency 301 KHZ
Airport Weather Information & NOTAM
ADDS - METARS form results

(0849 UTC 06 April 2020)
Data provider http://aviationweather.gov/metar/data/
 
Forecast for: MHRO (ROATAN , HN)
Text: TAF MHRO 060345Z 0606/0706 11006KT 9999 FEW025 TX30/0621Z TN26/0612Z
Forecast period: 0600 to 1200 UTC 06 April 2020
Forecast type: FROM: standard forecast or significant change
Winds: from the ESE (110 degrees) at 7 MPH (6 knots; 3.1 m/s)
Visibility: 6 or more miles 10+ km)
Ceiling: at least 12,000 feet AGL
Clouds: few clouds at 2500 feet AGL
Weather: no significant weather forecast for this period
Text: BECMG 0612/0614 SCT020
Forecast period: 1200 UTC 06 April 2020 to 0600 UTC 07 April 2020
Forecast type: BECOMING: Conditions expected to become as follows by 1400 UTC 06 April 2020
Winds: from the ESE (110 degrees) at 7 MPH (6 knots; 3.1 m/s)
Visibility: 6 or more miles 10+ km)
Ceiling: at least 12,000 feet AGL
Clouds: scattered clouds at 2000 feet AGL
Weather: no significant weather forecast for this period